IXQ weather

Kamalpur Airport
Tripura, India

Public forecast

Using degrees Celsius for public forecast. Weather courtesy of forecast.io.

METAR (pilot weather report)

Report is more than 6 hours old.

Closest report is Agartala Airport, 34.7 nm (64.3 km) WSW. Retrieved 2019/08/23 14:00 UTC (8 hours ago):

VEAT 231400Z 09003KT 5000 TS SCT018 FEW030CB BKN100 27/25 Q1004 NOSIG

TAF (pilot weather forecast)

Forecast is more than 12 hours old.

Closest forecast is Agartala Airport, 34.7 nm (64.3 km) WSW. Retrieved 2013/07/19 12:00 UTC (6 years ago):

TAF VEAT 190900Z 1912/1921 16008KT 5000 HZ SCT018 FEW030CB BKN100 TEMPO 1912/1921 3000 -TSRA SCT015 FEW025CB OVC090